This is the latest recevied weather packets stored in our database for station/object MO0NET-13. If no packets are shown the sender has not sent any weather packets the latest 1 day(s).
| Time | Temp. | Humidity | Pressure | Rain* | Wind** | Luminosity | Snow |
|---|---|---|---|---|---|---|---|
| 1778164803 | 16.11° C | 51% | 1015.9 hPa | 0 mm | - | 147 W/m² | - |
| 1778163603 | 16.11° C | 52% | 1015.7 hPa | 0 mm | - | 156 W/m² | - |
| 1778162403 | 16.11° C | 51% | 1015.9 hPa | 0 mm | - | 177 W/m² | - |
| 1778161203 | 16.67° C | 51% | 1015.9 hPa | 0 mm | - | 201 W/m² | - |
| 1778160003 | 18.89° C | 47% | 1016 hPa | 0 mm | - | 717 W/m² | - |
| 1778158803 | 17.22° C | 51% | 1016 hPa | 0 mm | - | 176 W/m² | - |
| 1778157603 | 16.67° C | 50% | 1016 hPa | 0 mm | - | 736 W/m² | - |
| 1778156403 | 17.78° C | 51% | 1015.9 hPa | 0 mm | - | 777 W/m² | - |
| 1778155203 | 17.78° C | 51% | 1016 hPa | 0 mm | - | 765 W/m² | - |
| 1778154003 | 16.67° C | 54% | 1016 hPa | 0 mm | - | 693 W/m² | - |
| 1778152803 | 16.11° C | 55% | 1016 hPa | 0 mm | - | 765 W/m² | - |
| 1778151603 | 16.67° C | 53% | 1015.9 hPa | 0 mm | - | 723 W/m² | - |
| 1778150403 | 16.11° C | 52% | 1016.1 hPa | 0 mm | - | 746 W/m² | - |
| 1778149203 | 16.11° C | 51% | 1015.9 hPa | 0 mm | - | 721 W/m² | - |
| 1778148003 | 16.11° C | 56% | 1015.8 hPa | 0 mm | - | 717 W/m² | - |
| 1778146803 | 16.11° C | 56% | 1015.7 hPa | 0 mm | - | 693 W/m² | - |
| 1778145603 | 15.56° C | 60% | 1015.6 hPa | 0 mm | - | 679 W/m² | - |
| 1778144403 | 15.56° C | 63% | 1015.5 hPa | 0 mm | - | 625 W/m² | - |
| 1778143203 | 14.44° C | 66% | 1015.5 hPa | 0 mm | - | 597 W/m² | - |
| 1778142003 | 16.11° C | 62% | 1015.5 hPa | 0 mm | - | 541 W/m² | - |
| 1778140803 | 14.44° C | 68% | 1015.4 hPa | 0 mm | - | 492 W/m² | - |
| 1778139603 | 13.33° C | 71% | 1015.1 hPa | 0 mm | - | 445 W/m² | - |
| 1778138403 | 12.22° C | 74% | 1015.1 hPa | 0 mm | - | 374 W/m² | - |
| 1778137203 | 12.78° C | 73% | 1015.1 hPa | 0 mm | - | 329 W/m² | - |
| 1778136003 | 11.67° C | 77% | 1014.9 hPa | 0 mm | - | 244 W/m² | - |
* Rain latest hour (hover to see other rain measurements)
** Current wind speed in m/s (hover to see current wind gust speed)